sensor_id;sensor_type;location;lat;lon;timestamp;P1;durP1;ratioP1;P2;durP2;ratioP2
20022;SDS011;10172;42.054;24.546;2024-02-14T00:00:07;0.73;;;0.60;;
20022;SDS011;10172;42.054;24.546;2024-02-14T00:02:38;0.57;;;0.55;;
20022;SDS011;10172;42.054;24.546;2024-02-14T00:05:14;0.80;;;0.57;;
20022;SDS011;10172;42.054;24.546;2024-02-14T00:07:39;0.90;;;0.70;;
20022;SDS011;10172;42.054;24.546;2024-02-14T00:10:05;0.68;;;0.57;;
20022;SDS011;10172;42.054;24.546;2024-02-14T00:12:32;0.80;;;0.70;;
20022;SDS011;10172;42.054;24.546;2024-02-14T00:14:58;0.60;;;0.57;;
20022;SDS011;10172;42.054;24.546;2024-02-14T00:17:23;0.77;;;0.68;;
20022;SDS011;10172;42.054;24.546;2024-02-14T00:19:49;0.60;;;0.60;;
20022;SDS011;10172;42.054;24.546;2024-02-14T00:22:14;0.30;;;0.30;;
20022;SDS011;10172;42.054;24.546;2024-02-14T00:24:41;0.75;;;0.50;;
20022;SDS011;10172;42.054;24.546;2024-02-14T00:27:06;1.23;;;0.60;;
20022;SDS011;10172;42.054;24.546;2024-02-14T00:29:32;0.50;;;0.50;;
20022;SDS011;10172;42.054;24.546;2024-02-14T00:31:59;0.52;;;0.50;;
20022;SDS011;10172;42.054;24.546;2024-02-14T00:34:25;1.00;;;0.50;;
20022;SDS011;10172;42.054;24.546;2024-02-14T00:36:50;0.93;;;0.60;;
20022;SDS011;10172;42.054;24.546;2024-02-14T00:39:16;3.25;;;1.08;;
20022;SDS011;10172;42.054;24.546;2024-02-14T00:41:41;1.38;;;0.50;;
20022;SDS011;10172;42.054;24.546;2024-02-14T00:44:06;0.90;;;0.70;;
20022;SDS011;10172;42.054;24.546;2024-02-14T00:46:32;1.45;;;0.70;;
20022;SDS011;10172;42.054;24.546;2024-02-14T00:48:57;0.80;;;0.60;;
20022;SDS011;10172;42.054;24.546;2024-02-14T00:51:23;1.98;;;0.52;;
20022;SDS011;10172;42.054;24.546;2024-02-14T00:53:48;0.82;;;0.60;;
20022;SDS011;10172;42.054;24.546;2024-02-14T00:56:13;1.10;;;0.70;;
20022;SDS011;10172;42.054;24.546;2024-02-14T00:58:39;0.77;;;0.60;;
20022;SDS011;10172;42.054;24.546;2024-02-14T01:01:04;0.60;;;0.55;;
20022;SDS011;10172;42.054;24.546;2024-02-14T01:03:30;0.80;;;0.77;;
20022;SDS011;10172;42.054;24.546;2024-02-14T01:05:56;0.98;;;0.50;;
20022;SDS011;10172;42.054;24.546;2024-02-14T01:08:21;0.57;;;0.57;;
20022;SDS011;10172;42.054;24.546;2024-02-14T01:10:46;0.80;;;0.70;;
20022;SDS011;10172;42.054;24.546;2024-02-14T01:13:12;0.95;;;0.70;;
20022;SDS011;10172;42.054;24.546;2024-02-14T01:15:37;1.05;;;0.95;;
20022;SDS011;10172;42.054;24.546;2024-02-14T01:18:03;0.80;;;0.70;;
20022;SDS011;10172;42.054;24.546;2024-02-14T01:20:28;0.82;;;0.70;;
20022;SDS011;10172;42.054;24.546;2024-02-14T01:22:54;0.95;;;0.60;;
20022;SDS011;10172;42.054;24.546;2024-02-14T01:25:20;1.38;;;0.60;;
20022;SDS011;10172;42.054;24.546;2024-02-14T01:27:45;1.35;;;0.75;;
20022;SDS011;10172;42.054;24.546;2024-02-14T01:30:10;1.38;;;0.80;;
20022;SDS011;10172;42.054;24.546;2024-02-14T01:32:36;0.60;;;0.60;;
20022;SDS011;10172;42.054;24.546;2024-02-14T01:35:02;0.95;;;0.68;;
20022;SDS011;10172;42.054;24.546;2024-02-14T01:37:28;0.68;;;0.60;;
20022;SDS011;10172;42.054;24.546;2024-02-14T01:39:54;1.15;;;0.77;;
20022;SDS011;10172;42.054;24.546;2024-02-14T01:42:20;0.60;;;0.60;;
20022;SDS011;10172;42.054;24.546;2024-02-14T01:44:45;0.50;;;0.50;;
20022;SDS011;10172;42.054;24.546;2024-02-14T01:47:11;0.90;;;0.52;;
20022;SDS011;10172;42.054;24.546;2024-02-14T01:49:37;0.50;;;0.50;;
20022;SDS011;10172;42.054;24.546;2024-02-14T01:52:03;0.50;;;0.50;;
20022;SDS011;10172;42.054;24.546;2024-02-14T01:54:30;0.95;;;0.52;;
20022;SDS011;10172;42.054;24.546;2024-02-14T01:56:57;1.58;;;0.82;;
20022;SDS011;10172;42.054;24.546;2024-02-14T01:59:24;0.50;;;0.40;;
20022;SDS011;10172;42.054;24.546;2024-02-14T02:01:49;1.35;;;0.85;;
20022;SDS011;10172;42.054;24.546;2024-02-14T02:04:16;1.15;;;0.70;;
20022;SDS011;10172;42.054;24.546;2024-02-14T02:06:43;0.95;;;0.65;;
20022;SDS011;10172;42.054;24.546;2024-02-14T02:09:08;0.95;;;0.80;;
20022;SDS011;10172;42.054;24.546;2024-02-14T02:11:47;2.05;;;0.70;;
20022;SDS011;10172;42.054;24.546;2024-02-14T02:14:14;1.67;;;0.88;;
20022;SDS011;10172;42.054;24.546;2024-02-14T02:16:39;1.35;;;0.95;;
20022;SDS011;10172;42.054;24.546;2024-02-14T02:19:05;1.13;;;1.00;;
20022;SDS011;10172;42.054;24.546;2024-02-14T02:21:33;1.27;;;0.82;;
20022;SDS011;10172;42.054;24.546;2024-02-14T02:24:00;0.70;;;0.70;;
20022;SDS011;10172;42.054;24.546;2024-02-14T02:26:25;0.90;;;0.70;;
20022;SDS011;10172;42.054;24.546;2024-02-14T02:28:51;1.00;;;0.80;;
20022;SDS011;10172;42.054;24.546;2024-02-14T02:31:16;0.82;;;0.73;;
20022;SDS011;10172;42.054;24.546;2024-02-14T02:33:43;0.70;;;0.70;;
20022;SDS011;10172;42.054;24.546;2024-02-14T02:36:08;1.20;;;0.90;;
20022;SDS011;10172;42.054;24.546;2024-02-14T02:38:34;1.67;;;0.70;;
20022;SDS011;10172;42.054;24.546;2024-02-14T02:41:01;0.80;;;0.75;;
20022;SDS011;10172;42.054;24.546;2024-02-14T02:43:29;0.60;;;0.60;;
20022;SDS011;10172;42.054;24.546;2024-02-14T02:45:55;0.90;;;0.70;;
20022;SDS011;10172;42.054;24.546;2024-02-14T02:48:22;0.93;;;0.80;;
20022;SDS011;10172;42.054;24.546;2024-02-14T02:50:48;1.20;;;0.80;;
20022;SDS011;10172;42.054;24.546;2024-02-14T02:53:17;1.00;;;0.90;;
20022;SDS011;10172;42.054;24.546;2024-02-14T02:55:42;0.82;;;0.70;;
20022;SDS011;10172;42.054;24.546;2024-02-14T02:58:08;1.13;;;1.00;;
20022;SDS011;10172;42.054;24.546;2024-02-14T03:00:33;1.35;;;0.82;;
20022;SDS011;10172;42.054;24.546;2024-02-14T03:02:59;1.48;;;1.10;;
20022;SDS011;10172;42.054;24.546;2024-02-14T03:05:25;1.77;;;1.13;;
20022;SDS011;10172;42.054;24.546;2024-02-14T03:07:51;1.58;;;1.00;;
20022;SDS011;10172;42.054;24.546;2024-02-14T03:10:17;1.67;;;1.17;;
20022;SDS011;10172;42.054;24.546;2024-02-14T03:12:47;2.28;;;0.80;;
20022;SDS011;10172;42.054;24.546;2024-02-14T03:15:13;1.05;;;0.90;;
20022;SDS011;10172;42.054;24.546;2024-02-14T03:17:39;1.10;;;1.00;;
20022;SDS011;10172;42.054;24.546;2024-02-14T03:20:04;2.92;;;0.98;;
20022;SDS011;10172;42.054;24.546;2024-02-14T03:22:39;1.15;;;1.00;;
20022;SDS011;10172;42.054;24.546;2024-02-14T03:25:13;2.10;;;1.23;;
20022;SDS011;10172;42.054;24.546;2024-02-14T03:27:41;2.70;;;1.58;;
20022;SDS011;10172;42.054;24.546;2024-02-14T03:30:07;2.28;;;1.30;;
20022;SDS011;10172;42.054;24.546;2024-02-14T03:32:32;2.00;;;1.20;;
20022;SDS011;10172;42.054;24.546;2024-02-14T03:34:58;1.70;;;1.17;;
20022;SDS011;10172;42.054;24.546;2024-02-14T03:37:25;2.20;;;1.30;;
20022;SDS011;10172;42.054;24.546;2024-02-14T03:39:51;2.03;;;1.55;;
20022;SDS011;10172;42.054;24.546;2024-02-14T03:42:17;1.80;;;1.20;;
20022;SDS011;10172;42.054;24.546;2024-02-14T03:44:44;1.95;;;1.25;;
20022;SDS011;10172;42.054;24.546;2024-02-14T03:47:11;2.72;;;1.30;;
20022;SDS011;10172;42.054;24.546;2024-02-14T03:49:37;1.60;;;1.27;;
20022;SDS011;10172;42.054;24.546;2024-02-14T03:52:03;4.72;;;4.22;;
20022;SDS011;10172;42.054;24.546;2024-02-14T03:54:34;1.98;;;1.42;;
20022;SDS011;10172;42.054;24.546;2024-02-14T03:57:00;2.78;;;1.30;;
20022;SDS011;10172;42.054;24.546;2024-02-14T03:59:25;3.15;;;1.30;;
20022;SDS011;10172;42.054;24.546;2024-02-14T04:01:50;1.90;;;0.95;;
20022;SDS011;10172;42.054;24.546;2024-02-14T04:04:18;2.92;;;2.00;;
20022;SDS011;10172;42.054;24.546;2024-02-14T04:06:43;8.15;;;4.03;;
20022;SDS011;10172;42.054;24.546;2024-02-14T04:09:10;2.92;;;1.63;;
20022;SDS011;10172;42.054;24.546;2024-02-14T04:11:35;2.05;;;1.75;;
20022;SDS011;10172;42.054;24.546;2024-02-14T04:14:01;2.97;;;1.80;;
20022;SDS011;10172;42.054;24.546;2024-02-14T04:16:26;1.73;;;1.30;;
20022;SDS011;10172;42.054;24.546;2024-02-14T04:18:52;3.22;;;1.48;;
20022;SDS011;10172;42.054;24.546;2024-02-14T04:21:18;2.00;;;1.40;;
20022;SDS011;10172;42.054;24.546;2024-02-14T04:23:43;2.28;;;1.80;;
20022;SDS011;10172;42.054;24.546;2024-02-14T04:26:09;1.67;;;1.23;;
20022;SDS011;10172;42.054;24.546;2024-02-14T04:28:34;2.90;;;1.45;;
20022;SDS011;10172;42.054;24.546;2024-02-14T04:31:00;6.07;;;3.00;;
20022;SDS011;10172;42.054;24.546;2024-02-14T04:33:25;2.72;;;2.13;;
20022;SDS011;10172;42.054;24.546;2024-02-14T04:35:50;3.13;;;2.30;;
20022;SDS011;10172;42.054;24.546;2024-02-14T04:38:16;2.28;;;1.85;;
20022;SDS011;10172;42.054;24.546;2024-02-14T04:40:43;2.28;;;1.98;;
20022;SDS011;10172;42.054;24.546;2024-02-14T04:43:09;2.70;;;2.33;;
20022;SDS011;10172;42.054;24.546;2024-02-14T04:45:35;3.70;;;2.72;;
20022;SDS011;10172;42.054;24.546;2024-02-14T04:48:00;3.70;;;2.70;;
20022;SDS011;10172;42.054;24.546;2024-02-14T04:50:26;2.65;;;1.90;;
20022;SDS011;10172;42.054;24.546;2024-02-14T04:52:52;3.00;;;2.58;;
20022;SDS011;10172;42.054;24.546;2024-02-14T04:55:17;5.50;;;3.78;;
20022;SDS011;10172;42.054;24.546;2024-02-14T04:57:43;3.88;;;2.35;;
20022;SDS011;10172;42.054;24.546;2024-02-14T05:00:09;6.32;;;4.57;;
20022;SDS011;10172;42.054;24.546;2024-02-14T05:02:35;5.20;;;3.85;;
20022;SDS011;10172;42.054;24.546;2024-02-14T05:05:02;4.78;;;3.10;;
20022;SDS011;10172;42.054;24.546;2024-02-14T05:07:28;3.45;;;2.50;;
20022;SDS011;10172;42.054;24.546;2024-02-14T05:09:53;6.03;;;5.43;;
20022;SDS011;10172;42.054;24.546;2024-02-14T05:12:21;4.25;;;3.33;;
20022;SDS011;10172;42.054;24.546;2024-02-14T05:14:46;4.40;;;3.38;;
20022;SDS011;10172;42.054;24.546;2024-02-14T05:17:13;3.30;;;2.03;;
20022;SDS011;10172;42.054;24.546;2024-02-14T05:19:41;4.05;;;3.10;;
20022;SDS011;10172;42.054;24.546;2024-02-14T05:22:07;5.43;;;3.05;;
20022;SDS011;10172;42.054;24.546;2024-02-14T05:24:32;2.90;;;2.22;;
20022;SDS011;10172;42.054;24.546;2024-02-14T05:26:58;8.43;;;5.10;;
20022;SDS011;10172;42.054;24.546;2024-02-14T05:29:23;5.65;;;3.85;;
20022;SDS011;10172;42.054;24.546;2024-02-14T05:31:48;4.07;;;2.45;;
20022;SDS011;10172;42.054;24.546;2024-02-14T05:34:14;4.57;;;1.80;;
20022;SDS011;10172;42.054;24.546;2024-02-14T05:36:39;8.05;;;6.53;;
20022;SDS011;10172;42.054;24.546;2024-02-14T05:39:07;5.85;;;4.05;;
20022;SDS011;10172;42.054;24.546;2024-02-14T05:41:33;4.68;;;3.55;;
20022;SDS011;10172;42.054;24.546;2024-02-14T05:43:59;6.00;;;4.15;;
20022;SDS011;10172;42.054;24.546;2024-02-14T05:46:25;5.57;;;4.25;;
20022;SDS011;10172;42.054;24.546;2024-02-14T05:48:50;5.13;;;3.80;;
20022;SDS011;10172;42.054;24.546;2024-02-14T05:51:17;6.43;;;4.95;;
20022;SDS011;10172;42.054;24.546;2024-02-14T05:53:42;6.72;;;4.75;;
20022;SDS011;10172;42.054;24.546;2024-02-14T05:56:08;5.32;;;4.80;;
20022;SDS011;10172;42.054;24.546;2024-02-14T05:58:33;6.28;;;4.32;;
20022;SDS011;10172;42.054;24.546;2024-02-14T06:00:58;6.85;;;5.15;;
20022;SDS011;10172;42.054;24.546;2024-02-14T06:03:24;5.75;;;3.95;;
20022;SDS011;10172;42.054;24.546;2024-02-14T06:05:49;5.25;;;3.22;;
20022;SDS011;10172;42.054;24.546;2024-02-14T06:08:14;5.53;;;2.92;;
20022;SDS011;10172;42.054;24.546;2024-02-14T06:10:40;4.03;;;3.25;;
20022;SDS011;10172;42.054;24.546;2024-02-14T06:13:05;6.10;;;3.90;;
20022;SDS011;10172;42.054;24.546;2024-02-14T06:15:31;8.20;;;3.85;;
20022;SDS011;10172;42.054;24.546;2024-02-14T06:17:56;6.53;;;3.90;;
20022;SDS011;10172;42.054;24.546;2024-02-14T06:20:22;7.95;;;3.42;;
20022;SDS011;10172;42.054;24.546;2024-02-14T06:22:48;7.60;;;3.75;;
20022;SDS011;10172;42.054;24.546;2024-02-14T06:25:13;6.65;;;3.80;;
20022;SDS011;10172;42.054;24.546;2024-02-14T06:27:39;7.68;;;5.50;;
20022;SDS011;10172;42.054;24.546;2024-02-14T06:30:04;6.18;;;4.40;;
20022;SDS011;10172;42.054;24.546;2024-02-14T06:32:30;22.92;;;10.95;;
20022;SDS011;10172;42.054;24.546;2024-02-14T06:34:55;6.88;;;3.90;;
20022;SDS011;10172;42.054;24.546;2024-02-14T06:37:21;5.75;;;4.18;;
20022;SDS011;10172;42.054;24.546;2024-02-14T06:39:46;5.38;;;3.15;;
20022;SDS011;10172;42.054;24.546;2024-02-14T06:42:13;2.72;;;2.05;;
20022;SDS011;10172;42.054;24.546;2024-02-14T06:44:39;6.32;;;4.60;;
20022;SDS011;10172;42.054;24.546;2024-02-14T06:47:04;5.88;;;3.78;;
20022;SDS011;10172;42.054;24.546;2024-02-14T06:49:30;5.65;;;3.05;;
20022;SDS011;10172;42.054;24.546;2024-02-14T06:51:55;4.60;;;2.83;;
20022;SDS011;10172;42.054;24.546;2024-02-14T06:54:20;5.07;;;3.20;;
20022;SDS011;10172;42.054;24.546;2024-02-14T06:56:46;4.13;;;2.75;;
20022;SDS011;10172;42.054;24.546;2024-02-14T06:59:11;3.65;;;2.80;;
20022;SDS011;10172;42.054;24.546;2024-02-14T07:01:37;5.47;;;3.50;;
20022;SDS011;10172;42.054;24.546;2024-02-14T07:04:03;6.00;;;3.95;;
20022;SDS011;10172;42.054;24.546;2024-02-14T07:06:29;5.13;;;3.53;;
20022;SDS011;10172;42.054;24.546;2024-02-14T07:08:55;7.20;;;3.30;;
20022;SDS011;10172;42.054;24.546;2024-02-14T07:11:20;6.32;;;4.35;;
20022;SDS011;10172;42.054;24.546;2024-02-14T07:13:46;5.45;;;3.53;;
20022;SDS011;10172;42.054;24.546;2024-02-14T07:16:11;7.10;;;4.00;;
20022;SDS011;10172;42.054;24.546;2024-02-14T07:18:37;9.85;;;6.40;;
20022;SDS011;10172;42.054;24.546;2024-02-14T07:21:02;6.18;;;4.05;;
20022;SDS011;10172;42.054;24.546;2024-02-14T07:23:30;6.35;;;3.60;;
20022;SDS011;10172;42.054;24.546;2024-02-14T07:25:57;9.43;;;4.85;;
20022;SDS011;10172;42.054;24.546;2024-02-14T07:28:23;9.85;;;5.13;;
20022;SDS011;10172;42.054;24.546;2024-02-14T07:30:48;13.40;;;6.82;;
20022;SDS011;10172;42.054;24.546;2024-02-14T07:33:13;9.80;;;5.38;;
20022;SDS011;10172;42.054;24.546;2024-02-14T07:35:40;10.38;;;4.80;;
20022;SDS011;10172;42.054;24.546;2024-02-14T07:38:06;6.47;;;4.13;;
20022;SDS011;10172;42.054;24.546;2024-02-14T07:40:31;27.83;;;14.75;;
20022;SDS011;10172;42.054;24.546;2024-02-14T07:42:58;7.07;;;4.72;;
20022;SDS011;10172;42.054;24.546;2024-02-14T07:45:23;5.88;;;3.42;;
20022;SDS011;10172;42.054;24.546;2024-02-14T07:47:49;6.07;;;4.22;;
20022;SDS011;10172;42.054;24.546;2024-02-14T07:50:15;8.57;;;4.45;;
20022;SDS011;10172;42.054;24.546;2024-02-14T07:52:41;7.97;;;4.82;;
20022;SDS011;10172;42.054;24.546;2024-02-14T07:55:08;8.73;;;5.20;;
20022;SDS011;10172;42.054;24.546;2024-02-14T07:57:37;28.02;;;12.05;;
20022;SDS011;10172;42.054;24.546;2024-02-14T08:00:03;23.25;;;10.27;;
20022;SDS011;10172;42.054;24.546;2024-02-14T08:02:29;9.43;;;4.25;;
20022;SDS011;10172;42.054;24.546;2024-02-14T08:04:54;36.67;;;13.20;;
20022;SDS011;10172;42.054;24.546;2024-02-14T08:07:20;6.80;;;4.80;;
20022;SDS011;10172;42.054;24.546;2024-02-14T08:09:45;20.60;;;9.68;;
20022;SDS011;10172;42.054;24.546;2024-02-14T08:12:10;27.70;;;11.43;;
20022;SDS011;10172;42.054;24.546;2024-02-14T08:14:36;9.55;;;5.75;;
20022;SDS011;10172;42.054;24.546;2024-02-14T08:17:01;9.68;;;5.50;;
20022;SDS011;10172;42.054;24.546;2024-02-14T08:19:27;11.40;;;7.13;;
20022;SDS011;10172;42.054;24.546;2024-02-14T08:21:52;31.83;;;16.17;;
20022;SDS011;10172;42.054;24.546;2024-02-14T08:24:22;12.50;;;7.47;;
20022;SDS011;10172;42.054;24.546;2024-02-14T08:26:51;9.60;;;6.03;;
20022;SDS011;10172;42.054;24.546;2024-02-14T08:29:16;3.97;;;2.42;;
20022;SDS011;10172;42.054;24.546;2024-02-14T08:31:43;8.43;;;5.50;;
20022;SDS011;10172;42.054;24.546;2024-02-14T08:34:08;9.25;;;5.25;;
20022;SDS011;10172;42.054;24.546;2024-02-14T08:36:34;16.52;;;9.82;;
20022;SDS011;10172;42.054;24.546;2024-02-14T08:39:06;13.48;;;7.60;;
20022;SDS011;10172;42.054;24.546;2024-02-14T08:41:31;9.68;;;6.13;;
20022;SDS011;10172;42.054;24.546;2024-02-14T08:43:57;8.05;;;5.28;;
20022;SDS011;10172;42.054;24.546;2024-02-14T08:46:22;6.18;;;4.43;;
20022;SDS011;10172;42.054;24.546;2024-02-14T08:48:48;8.35;;;6.00;;
20022;SDS011;10172;42.054;24.546;2024-02-14T08:51:14;9.20;;;6.55;;
20022;SDS011;10172;42.054;24.546;2024-02-14T08:53:40;8.65;;;5.82;;
20022;SDS011;10172;42.054;24.546;2024-02-14T08:56:09;10.25;;;6.30;;
20022;SDS011;10172;42.054;24.546;2024-02-14T08:58:36;10.52;;;6.82;;
20022;SDS011;10172;42.054;24.546;2024-02-14T09:01:05;11.27;;;7.35;;
20022;SDS011;10172;42.054;24.546;2024-02-14T09:03:51;12.25;;;8.00;;
20022;SDS011;10172;42.054;24.546;2024-02-14T09:06:16;10.05;;;6.60;;
20022;SDS011;10172;42.054;24.546;2024-02-14T09:08:46;10.70;;;6.43;;
20022;SDS011;10172;42.054;24.546;2024-02-14T09:11:11;7.78;;;5.63;;
20022;SDS011;10172;42.054;24.546;2024-02-14T09:13:37;7.78;;;5.55;;
20022;SDS011;10172;42.054;24.546;2024-02-14T09:16:04;7.88;;;6.25;;
20022;SDS011;10172;42.054;24.546;2024-02-14T09:18:30;7.85;;;5.90;;
20022;SDS011;10172;42.054;24.546;2024-02-14T09:20:56;8.15;;;6.20;;
20022;SDS011;10172;42.054;24.546;2024-02-14T09:23:22;9.13;;;6.88;;
20022;SDS011;10172;42.054;24.546;2024-02-14T09:25:48;8.10;;;6.00;;
20022;SDS011;10172;42.054;24.546;2024-02-14T09:28:15;9.68;;;6.43;;
20022;SDS011;10172;42.054;24.546;2024-02-14T09:30:41;8.40;;;4.82;;
20022;SDS011;10172;42.054;24.546;2024-02-14T09:33:06;8.20;;;6.03;;
20022;SDS011;10172;42.054;24.546;2024-02-14T09:35:31;8.65;;;4.22;;
20022;SDS011;10172;42.054;24.546;2024-02-14T09:37:57;10.20;;;6.80;;
20022;SDS011;10172;42.054;24.546;2024-02-14T09:40:22;11.85;;;7.97;;
20022;SDS011;10172;42.054;24.546;2024-02-14T09:42:54;8.73;;;6.03;;
20022;SDS011;10172;42.054;24.546;2024-02-14T09:45:23;8.00;;;5.22;;
20022;SDS011;10172;42.054;24.546;2024-02-14T09:47:51;8.80;;;5.78;;
20022;SDS011;10172;42.054;24.546;2024-02-14T09:50:17;11.25;;;7.50;;
20022;SDS011;10172;42.054;24.546;2024-02-14T09:52:45;8.63;;;6.18;;
20022;SDS011;10172;42.054;24.546;2024-02-14T09:55:13;8.38;;;6.10;;
20022;SDS011;10172;42.054;24.546;2024-02-14T09:57:41;9.63;;;6.05;;
20022;SDS011;10172;42.054;24.546;2024-02-14T10:00:09;8.38;;;6.50;;
20022;SDS011;10172;42.054;24.546;2024-02-14T10:02:35;9.70;;;6.35;;
20022;SDS011;10172;42.054;24.546;2024-02-14T10:05:00;10.32;;;6.55;;
20022;SDS011;10172;42.054;24.546;2024-02-14T10:07:26;8.65;;;5.13;;
20022;SDS011;10172;42.054;24.546;2024-02-14T10:09:52;8.85;;;6.68;;
20022;SDS011;10172;42.054;24.546;2024-02-14T10:12:18;8.00;;;5.88;;
20022;SDS011;10172;42.054;24.546;2024-02-14T10:14:44;9.02;;;6.70;;
20022;SDS011;10172;42.054;24.546;2024-02-14T10:17:17;8.77;;;5.93;;
20022;SDS011;10172;42.054;24.546;2024-02-14T10:19:43;9.98;;;6.22;;
20022;SDS011;10172;42.054;24.546;2024-02-14T10:22:08;8.75;;;6.07;;
20022;SDS011;10172;42.054;24.546;2024-02-14T10:24:34;7.57;;;5.53;;
20022;SDS011;10172;42.054;24.546;2024-02-14T10:27:00;9.50;;;6.70;;
20022;SDS011;10172;42.054;24.546;2024-02-14T10:29:25;9.18;;;6.80;;
20022;SDS011;10172;42.054;24.546;2024-02-14T10:31:52;21.15;;;13.38;;
20022;SDS011;10172;42.054;24.546;2024-02-14T10:34:18;11.20;;;8.05;;
20022;SDS011;10172;42.054;24.546;2024-02-14T10:36:45;8.20;;;6.18;;
20022;SDS011;10172;42.054;24.546;2024-02-14T10:39:11;5.32;;;3.53;;
20022;SDS011;10172;42.054;24.546;2024-02-14T10:41:37;13.13;;;7.28;;
20022;SDS011;10172;42.054;24.546;2024-02-14T10:44:03;8.82;;;6.20;;
20022;SDS011;10172;42.054;24.546;2024-02-14T10:46:33;8.32;;;5.97;;
20022;SDS011;10172;42.054;24.546;2024-02-14T10:49:04;9.48;;;5.50;;
20022;SDS011;10172;42.054;24.546;2024-02-14T10:51:31;5.68;;;4.13;;
20022;SDS011;10172;42.054;24.546;2024-02-14T10:53:58;7.75;;;5.18;;
20022;SDS011;10172;42.054;24.546;2024-02-14T10:56:27;12.07;;;8.02;;
20022;SDS011;10172;42.054;24.546;2024-02-14T10:58:55;13.25;;;7.72;;
20022;SDS011;10172;42.054;24.546;2024-02-14T11:01:23;14.57;;;8.93;;
20022;SDS011;10172;42.054;24.546;2024-02-14T11:03:50;10.50;;;6.65;;
20022;SDS011;10172;42.054;24.546;2024-02-14T11:06:16;13.55;;;9.32;;
20022;SDS011;10172;42.054;24.546;2024-02-14T11:08:57;9.77;;;7.90;;
20022;SDS011;10172;42.054;24.546;2024-02-14T11:11:28;9.95;;;7.18;;
20022;SDS011;10172;42.054;24.546;2024-02-14T11:13:55;9.65;;;7.43;;
20022;SDS011;10172;42.054;24.546;2024-02-14T11:16:25;10.70;;;8.07;;
20022;SDS011;10172;42.054;24.546;2024-02-14T11:18:53;9.07;;;6.40;;
20022;SDS011;10172;42.054;24.546;2024-02-14T11:21:19;10.57;;;8.45;;
20022;SDS011;10172;42.054;24.546;2024-02-14T11:23:54;10.45;;;8.40;;
20022;SDS011;10172;42.054;24.546;2024-02-14T11:26:20;12.23;;;9.60;;
20022;SDS011;10172;42.054;24.546;2024-02-14T11:28:48;9.20;;;8.20;;
20022;SDS011;10172;42.054;24.546;2024-02-14T11:31:16;9.90;;;7.82;;
20022;SDS011;10172;42.054;24.546;2024-02-14T11:33:42;10.50;;;7.40;;
20022;SDS011;10172;42.054;24.546;2024-02-14T11:36:11;9.80;;;7.50;;
20022;SDS011;10172;42.054;24.546;2024-02-14T11:38:40;8.88;;;7.13;;
20022;SDS011;10172;42.054;24.546;2024-02-14T11:41:06;14.40;;;10.48;;
20022;SDS011;10172;42.054;24.546;2024-02-14T11:43:32;25.73;;;19.92;;
20022;SDS011;10172;42.054;24.546;2024-02-14T11:45:57;9.65;;;6.80;;
20022;SDS011;10172;42.054;24.546;2024-02-14T11:48:23;58.03;;;40.13;;
20022;SDS011;10172;42.054;24.546;2024-02-14T11:50:49;16.63;;;13.48;;
20022;SDS011;10172;42.054;24.546;2024-02-14T11:53:17;16.30;;;12.95;;
20022;SDS011;10172;42.054;24.546;2024-02-14T11:55:44;9.73;;;7.18;;
20022;SDS011;10172;42.054;24.546;2024-02-14T11:58:12;9.60;;;8.60;;
20022;SDS011;10172;42.054;24.546;2024-02-14T12:00:38;10.75;;;7.85;;
20022;SDS011;10172;42.054;24.546;2024-02-14T12:03:06;17.80;;;10.68;;
20022;SDS011;10172;42.054;24.546;2024-02-14T12:05:33;9.65;;;7.53;;
20022;SDS011;10172;42.054;24.546;2024-02-14T12:07:59;12.27;;;7.55;;
20022;SDS011;10172;42.054;24.546;2024-02-14T12:10:26;11.50;;;10.30;;
20022;SDS011;10172;42.054;24.546;2024-02-14T12:12:51;15.05;;;12.98;;
20022;SDS011;10172;42.054;24.546;2024-02-14T12:15:16;18.73;;;13.02;;
20022;SDS011;10172;42.054;24.546;2024-02-14T12:17:42;22.50;;;18.25;;
20022;SDS011;10172;42.054;24.546;2024-02-14T12:20:09;10.98;;;9.00;;
20022;SDS011;10172;42.054;24.546;2024-02-14T12:22:36;8.75;;;7.45;;
20022;SDS011;10172;42.054;24.546;2024-02-14T12:25:02;8.23;;;6.22;;
20022;SDS011;10172;42.054;24.546;2024-02-14T12:27:31;6.50;;;4.05;;
20022;SDS011;10172;42.054;24.546;2024-02-14T12:29:58;7.50;;;5.68;;
20022;SDS011;10172;42.054;24.546;2024-02-14T12:32:23;8.52;;;6.50;;
20022;SDS011;10172;42.054;24.546;2024-02-14T12:34:48;11.30;;;8.80;;
20022;SDS011;10172;42.054;24.546;2024-02-14T12:37:14;10.90;;;9.63;;
20022;SDS011;10172;42.054;24.546;2024-02-14T12:39:40;8.35;;;5.80;;
20022;SDS011;10172;42.054;24.546;2024-02-14T12:42:05;7.43;;;5.70;;
20022;SDS011;10172;42.054;24.546;2024-02-14T12:44:31;5.10;;;4.13;;
20022;SDS011;10172;42.054;24.546;2024-02-14T12:46:56;8.20;;;5.55;;
20022;SDS011;10172;42.054;24.546;2024-02-14T12:49:22;7.50;;;6.40;;
20022;SDS011;10172;42.054;24.546;2024-02-14T12:51:51;7.68;;;6.68;;
20022;SDS011;10172;42.054;24.546;2024-02-14T12:54:16;8.35;;;5.60;;
20022;SDS011;10172;42.054;24.546;2024-02-14T12:56:42;8.32;;;5.28;;
20022;SDS011;10172;42.054;24.546;2024-02-14T12:59:07;13.57;;;8.80;;
20022;SDS011;10172;42.054;24.546;2024-02-14T13:01:37;8.43;;;5.47;;
20022;SDS011;10172;42.054;24.546;2024-02-14T13:04:02;10.32;;;7.03;;
20022;SDS011;10172;42.054;24.546;2024-02-14T13:06:30;14.82;;;8.38;;
20022;SDS011;10172;42.054;24.546;2024-02-14T13:08:56;10.85;;;6.55;;
20022;SDS011;10172;42.054;24.546;2024-02-14T13:11:21;8.48;;;5.68;;
20022;SDS011;10172;42.054;24.546;2024-02-14T13:13:47;9.70;;;6.93;;
20022;SDS011;10172;42.054;24.546;2024-02-14T13:16:12;9.50;;;6.68;;
20022;SDS011;10172;42.054;24.546;2024-02-14T13:18:38;7.22;;;4.97;;
20022;SDS011;10172;42.054;24.546;2024-02-14T13:21:03;6.40;;;3.80;;
20022;SDS011;10172;42.054;24.546;2024-02-14T13:23:30;7.47;;;5.20;;
20022;SDS011;10172;42.054;24.546;2024-02-14T13:25:56;4.45;;;2.75;;
20022;SDS011;10172;42.054;24.546;2024-02-14T13:28:21;12.20;;;7.10;;
20022;SDS011;10172;42.054;24.546;2024-02-14T13:30:46;8.65;;;5.10;;
20022;SDS011;10172;42.054;24.546;2024-02-14T13:33:15;9.07;;;5.18;;
20022;SDS011;10172;42.054;24.546;2024-02-14T13:35:40;11.02;;;6.15;;
20022;SDS011;10172;42.054;24.546;2024-02-14T13:38:06;9.80;;;5.97;;
20022;SDS011;10172;42.054;24.546;2024-02-14T13:40:31;7.72;;;5.28;;
20022;SDS011;10172;42.054;24.546;2024-02-14T13:42:57;6.72;;;3.78;;
20022;SDS011;10172;42.054;24.546;2024-02-14T13:45:23;6.85;;;4.18;;
20022;SDS011;10172;42.054;24.546;2024-02-14T13:47:49;7.15;;;4.82;;
20022;SDS011;10172;42.054;24.546;2024-02-14T13:50:16;4.65;;;2.30;;
20022;SDS011;10172;42.054;24.546;2024-02-14T13:52:41;9.85;;;6.07;;
20022;SDS011;10172;42.054;24.546;2024-02-14T13:55:07;6.85;;;4.18;;
20022;SDS011;10172;42.054;24.546;2024-02-14T13:57:35;6.68;;;3.95;;
20022;SDS011;10172;42.054;24.546;2024-02-14T14:00:04;7.57;;;4.80;;
20022;SDS011;10172;42.054;24.546;2024-02-14T14:02:30;9.18;;;5.30;;
20022;SDS011;10172;42.054;24.546;2024-02-14T14:04:56;5.50;;;3.47;;
20022;SDS011;10172;42.054;24.546;2024-02-14T14:07:22;8.98;;;5.72;;
20022;SDS011;10172;42.054;24.546;2024-02-14T14:09:48;11.30;;;5.30;;
20022;SDS011;10172;42.054;24.546;2024-02-14T14:12:14;6.50;;;3.95;;
20022;SDS011;10172;42.054;24.546;2024-02-14T14:14:40;9.00;;;4.55;;
20022;SDS011;10172;42.054;24.546;2024-02-14T14:17:05;12.05;;;6.68;;
20022;SDS011;10172;42.054;24.546;2024-02-14T14:19:30;9.82;;;5.80;;
20022;SDS011;10172;42.054;24.546;2024-02-14T14:21:56;8.85;;;6.32;;
20022;SDS011;10172;42.054;24.546;2024-02-14T14:24:22;8.07;;;5.55;;